Latest Weather Observations for Marble Bar

IDW60801

Issued at 11:33 am WST Thursday 1 September 2016 (issued every 30 minutes, with the page automatically refreshed every 10 minutes)

About weather observations | Map of weather stations | Latest weather observations for WA | Other Formats
Station Details ID: 004106 Name: MARBLE BAR Lat: -21.18 Lon: 119.75 Height: 182.3 m
Data from the previous 72 hours. | See also: Recent months at Marble Bar
Date/Time
WST
Temp
°C
App
Temp
°C
Dew
Point
°C
Rel
Hum
%
Delta-T
°C
Wind Press
QNH
hPa
Press
MSL
hPa
Rain since
9am
mm
Dir  Spd
km/h
Gust
km/h
Spd
kts
Gust
kts
01/11:30am 26.0 22.2 5.6 27 10.5 S 15 28 8 15 1016.8 1015.9 0.0
01/11:00am 24.9 21.1 5.7 29 9.9 SSE 15 28 8 15 1017.1 1016.2 0.0
01/10:30am 24.1 19.6 6.8 33 9.0 S 20 32 11 17 1017.6 1016.7 0.0
01/10:00am 24.2 19.4 7.4 34 8.9 S 22 35 12 19 1018.1 1017.1 0.0
01/09:30am 23.1 18.5 8.0 38 8.0 S 22 32 12 17 1018.2 1017.2 0.0
01/09:00am 22.2 17.6 8.3 41 7.4 S 22 33 12 18 1018.2 1017.2 0.0
01/08:30am 21.8 17.7 8.7 43 7.0 S 20 28 11 15 1017.9 1016.9 0.0
01/08:00am 20.6 16.0 8.3 45 6.5 S 22 32 12 17 1017.4 1016.5 0.0
01/07:30am 20.1 15.8 7.8 45 6.4 S 20 32 11 17 1017.0 1016.4 0.0
01/07:00am 19.9 15.5 7.3 44 6.5 S 20 32 11 17 1016.7 1016.1 0.0
01/06:30am 19.0 16.7 7.4 47 5.9 S 9 15 5 8 1016.4 1015.8 0.0
01/06:00am 18.0 16.1 7.7 51 5.3 S 7 11 4 6 1015.9 1015.3 0.0
01/05:30am 18.8 17.0 7.9 49 5.6 S 7 9 4 5 1015.4 1014.8 0.0
01/05:00am 20.0 17.4 7.7 45 6.4 S 11 13 6 7 1015.0 1014.4 0.0
01/04:30am 20.8 17.9 8.1 44 6.7 S 13 19 7 10 1014.6 1013.9 0.0
01/04:00am 21.3 17.8 8.9 45 6.6 SSW 17 24 9 13 1014.3 1013.6 0.0
01/03:30am 21.7 18.5 9.9 47 6.4 SSW 17 28 9 15 1014.2 1013.5 0.0
01/03:00am 22.2 20.8 12.2 53 5.7 WSW 11 19 6 10 1014.2 1013.5 0.0
01/02:30am 22.1 21.6 12.6 55 5.4 W 7 13 4 7 1014.4 1013.7 0.0
01/02:00am 22.6 21.9 13.1 55 5.5 W 9 17 5 9 1014.6 1013.9 0.0
01/01:30am 23.1 22.8 13.3 54 5.7 W 7 15 4 8 1014.6 1013.9 0.0
01/01:00am 23.1 22.2 13.6 55 5.6 W 11 17 6 9 1015.0 1014.4 0.0
01/12:30am 23.3 22.4 13.8 55 5.6 W 11 15 6 8 1015.3 1014.7 0.0
01/12:00am 23.3 22.5 14.0 56 5.5 W 11 17 6 9 1015.5 1014.9 0.0
 
Date/Time
WST
Temp
°C
App
Temp
°C
Dew
Point
°C
Rel
Hum
%
Delta-T
°C
Wind Press
QNH
hPa
Press
MSL
hPa
Rain since
9am
mm
Dir  Spd
km/h
Gust
km/h
Spd
kts
Gust
kts
31/11:30pm 23.3 22.4 13.8 55 5.6 WNW 11 20 6 11 1015.7 1015.1 0.0
31/11:00pm 23.4 22.4 13.3 53 5.9 NW 11 15 6 8 1015.5 1014.9 0.0
31/10:30pm 24.2 21.8 12.5 48 6.8 WNW 17 28 9 15 1015.5 1014.9 0.0
31/10:00pm 24.5 22.3 13.4 50 6.5 WNW 17 24 9 13 1015.5 1014.9 0.0
31/09:30pm 24.7 22.8 13.0 48 6.8 NW 15 22 8 12 1015.4 1014.8 0.0
31/09:00pm 24.8 23.8 13.4 49 6.7 WNW 11 20 6 11 1015.4 1014.8 0.0
31/08:30pm 25.5 22.8 13.0 46 7.3 NW 19 28 10 15 1015.3 1014.7 0.0
31/08:00pm 26.0 23.2 12.5 43 7.9 NW 19 28 10 15 1015.0 1014.4 0.0
31/07:30pm 26.2 23.7 12.3 42 8.1 NW 17 24 9 13 1014.5 1013.8 0.0
31/07:00pm 26.3 23.9 12.7 43 8.0 NW 17 24 9 13 1014.0 1013.3 0.0
31/06:30pm 26.7 24.4 13.1 43 8.0 NW 17 26 9 14 1013.7 1013.0 0.0
31/06:00pm 27.1 24.8 13.1 42 8.3 NW 17 24 9 13 1013.3 1012.6 0.0
31/05:30pm 27.8 24.8 11.8 37 9.3 NW 19 28 10 15 1013.1 1012.4 0.0
31/05:00pm 28.4 25.8 11.9 36 9.6 WNW 17 28 9 15 1013.1 1012.4 0.0
31/04:30pm 28.4 25.4 11.9 36 9.6 WNW 19 30 10 16 1013.0 1012.3 0.0
31/04:00pm 29.1 25.9 11.2 33 10.4 WNW 19 30 10 16 1012.9 1012.2 0.0
31/03:30pm 29.1 25.5 10.7 32 10.6 WNW 20 30 11 16 1012.8 1012.1 0.0
31/03:00pm 30.0 26.4 10.0 29 11.4 NW 19 28 10 15 1012.8 1012.1 0.0
31/02:30pm 30.2 26.4 9.1 27 11.9 NW 19 32 10 17 1013.0 1012.3 0.0
31/02:00pm 29.1 25.4 9.3 29 11.1 NNW 19 33 10 18 1013.3 1012.6 0.0
31/01:30pm 29.7 27.0 10.3 30 11.1 NW 15 26 8 14 1013.8 1013.1 0.0
31/01:00pm 29.2 25.3 9.3 29 11.2 NNW 20 28 11 15 1014.3 1013.6 0.0
31/12:30pm 29.3 25.8 8.9 28 11.4 NNW 17 30 9 16 1014.8 1014.2 0.0
31/12:00pm 28.8 24.9 8.5 28 11.2 N 19 32 10 17 1014.9 1014.3 0.0
31/11:30am 28.0 24.8 9.8 32 10.2 NNE 17 28 9 15 1015.6 1015.0 0.0
31/11:00am 27.2 23.6 10.0 34 9.7 N 19 32 10 17 1016.1 1015.5 0.0
31/10:30am 26.1 23.9 9.5 35 9.2 N 11 19 6 10 1016.9 1016.3 0.0
31/10:00am 25.3 23.2 9.6 37 8.7 NNW 11 20 6 11 1017.2 1016.6 0.0
31/09:30am 24.7 23.8 10.6 41 7.9 NNE 6 19 3 10 1017.0 1016.4 0.0
31/09:00am 22.7 22.1 10.5 46 6.8 SE 4 7 2 4 1017.2 1016.6 0.0
31/08:30am 22.0 21.3 10.2 47 6.5 ESE 4 6 2 3 1016.9 1016.3 0.0
31/08:00am 20.5 19.4 10.0 51 5.7 E 6 9 3 5 1016.7 1016.1 0.0
31/07:30am 19.6 18.4 9.5 52 5.4 ESE 6 9 3 5 1016.5 1015.9 0.0
31/07:00am 16.8 16.9 10.2 65 3.5 CALM 0 2 0 1 1016.5 1015.9 0.0
31/06:30am 14.5 14.3 8.9 69 2.9 CALM 0 0 0 0 1016.4 1015.8 0.0
31/06:00am 14.9 13.4 9.3 69 2.9 SSW 7 9 4 5 1016.0 1015.4 0.0
31/05:30am 15.4 14.3 10.0 70 2.8 SW 6 9 3 5 1015.7 1015.1 0.0
31/05:00am 15.0 14.3 10.2 73 2.5 SSW 4 9 2 5 1015.4 1014.8 0.0
31/04:30am 14.4 13.4 9.0 70 2.8 SW 4 6 2 3 1015.4 1014.8 0.0
31/04:00am 13.7 13.3 8.1 69 2.8 CALM 0 0 0 0 1015.3 1014.7 0.0
31/03:30am 13.9 12.8 8.3 69 2.8 WNW 4 4 2 2 1015.3 1014.7 0.0
31/03:00am 14.8 14.4 8.3 65 3.3 CALM 0 0 0 0 1015.3 1014.7 0.0
31/02:30am 15.4 15.2 8.9 65 3.4 CALM 0 0 0 0 1015.4 1014.8 0.0
31/02:00am 16.3 16.0 8.8 61 3.9 CALM 0 0 0 0 1015.5 1014.9 0.0
31/01:30am 16.8 15.9 9.2 61 4.0 S 4 6 2 3 1015.7 1015.1 0.0
31/01:00am 16.3 14.7 8.0 58 4.2 SW 6 7 3 4 1016.0 1015.4 0.0
31/12:30am 16.3 15.8 7.8 57 4.3 CALM 0 0 0 0 1016.1 1015.5 0.0
31/12:00am 17.0 16.4 7.6 54 4.8 CALM 0 0 0 0 1016.2 1015.6 0.0
 
Date/Time
WST
Temp
°C
App
Temp
°C
Dew
Point
°C
Rel
Hum
%
Delta-T
°C
Wind Press
QNH
hPa
Press
MSL
hPa
Rain since
9am
mm
Dir  Spd
km/h
Gust
km/h
Spd
kts
Gust
kts
30/11:30pm 17.5 16.9 7.3 51 5.2 CALM 0 0 0 0 1016.2 1015.6 0.0
30/11:00pm 18.5 17.8 7.0 47 5.8 CALM 0 0 0 0 1016.1 1015.5 0.0
30/10:30pm 19.6 19.0 7.4 45 6.3 CALM 0 2 0 1 1016.1 1015.5 0.0
30/10:00pm 20.4 19.2 8.1 45 6.4 NNW 4 6 2 3 1016.1 1015.5 0.0
30/09:30pm 21.1 19.8 10.0 49 6.0 NNW 7 9 4 5 1016.2 1015.6 0.0
30/09:00pm 21.6 20.5 10.1 48 6.3 NW 6 9 3 5 1016.2 1015.6 0.0
30/08:30pm 22.8 20.9 10.6 46 6.8 NNW 11 17 6 9 1015.9 1015.3 0.0
30/08:00pm 23.4 21.9 10.5 44 7.2 NNW 9 15 5 8 1015.5 1014.9 0.0
30/07:30pm 23.4 22.1 9.8 42 7.5 N 7 9 4 5 1015.2 1014.6 0.0
30/07:00pm 24.6 22.8 8.1 35 8.8 NNE 7 15 4 8 1014.7 1014.1 0.0
30/06:30pm 25.4 23.4 6.1 29 10.0 NE 6 7 3 4 1014.3 1013.6 0.0
30/06:00pm 26.5 24.3 6.0 27 10.7 NE 7 11 4 6 1014.0 1013.3 0.0
30/05:30pm 27.3 24.7 6.1 26 11.2 NE 9 13 5 7 1013.9 1013.2 0.0
30/05:00pm 28.0 25.4 6.2 25 11.5 NE 9 15 5 8 1013.7 1013.0 0.0
30/04:30pm 28.4 25.9 6.5 25 11.7 NE 9 20 5 11 1013.5 1012.8 0.0
30/04:00pm 28.9 26.3 6.3 24 12.0 NE 9 19 5 10 1013.3 1012.6 0.0
30/03:30pm 28.8 25.7 5.6 23 12.2 NNE 11 20 6 11 1013.3 1012.6 0.0
30/03:00pm 28.7 25.5 4.9 22 12.4 ENE 11 22 6 12 1013.3 1012.6 0.0
30/02:30pm 29.5 27.0 4.9 21 12.8 N 7 19 4 10 1013.4 1012.7 0.0
30/02:00pm 28.6 25.6 4.2 21 12.5 ENE 9 15 5 8 1013.7 1013.0 0.0
30/01:30pm 28.1 24.3 3.7 21 12.4 E 13 22 7 12 1013.9 1013.2 0.0
30/01:00pm 28.1 24.3 3.7 21 12.4 E 13 24 7 13 1014.4 1013.7 0.0
30/12:30pm 27.9 23.8 4.2 22 12.1 NE 15 26 8 14 1014.8 1014.2 0.0
30/12:00pm 27.3 24.0 4.4 23 11.7 ENE 11 22 6 12 1015.5 1014.9 0.0
30/11:30am 26.3 22.8 5.3 26 10.8 ENE 13 26 7 14 1016.0 1015.4 0.0
30/11:00am 25.7 22.2 5.3 27 10.5 ENE 13 28 7 15 1016.5 1015.9 0.0
30/10:30am 25.5 21.1 4.6 26 10.6 E 17 30 9 16 1016.9 1016.3 0.0
30/10:00am 25.0 20.1 4.2 26 10.4 E 19 24 10 13 1017.0 1016.4 0.0
30/09:30am 24.0 19.4 3.9 27 10.0 E 17 24 9 13 1017.1 1016.5 0.0
30/09:00am 23.2 18.6 3.7 28 9.6 ESE 17 22 9 12 1017.0 1016.4 0.0
30/08:30am 21.1 18.1 4.2 33 8.3 E 9 13 5 7 1017.0 1016.4 0.0
30/08:00am 20.4 18.9 5.2 37 7.5 E 2 6 1 3 1016.7 1016.1 0.0
30/07:30am 17.8 17.3 7.8 52 5.1 CALM 0 0 0 0 1016.5 1015.9 0.0
30/07:00am 14.5 14.4 9.3 71 2.7 CALM 0 0 0 0 1016.1 1015.5 0.0
30/06:30am 11.7 11.3 8.2 79 1.7 CALM 0 0 0 0 1015.7 1015.1 0.0
30/06:00am 11.9 11.5 8.2 78 1.8 CALM 0 0 0 0 1015.3 1014.7 0.0
30/05:30am 12.9 12.6 8.8 76 2.1 CALM 0 0 0 0 1015.0 1014.4 0.0
30/05:00am 12.6 12.1 7.9 73 2.3 CALM 0 0 0 0 1014.6 1013.9 0.0
30/04:30am 12.7 12.1 7.4 70 2.6 CALM 0 4 0 2 1014.2 1013.5 0.0
30/04:00am 13.0 11.8 7.9 71 2.5 SSE 4 6 2 3 1013.9 1013.2 0.0
30/03:30am 14.6 13.2 9.6 72 2.6 SE 7 9 4 5 1013.8 1013.1 0.0
30/03:00am 14.1 12.9 8.1 67 3.0 ESE 4 7 2 4 1013.8 1013.1 0.0
30/02:30am 14.8 13.5 7.8 63 3.5 SE 4 6 2 3 1013.8 1013.1 0.0
30/02:00am 14.7 12.0 7.3 61 3.7 SSE 11 17 6 9 1014.0 1013.3 0.0
30/01:30am 14.8 14.0 8.1 64 3.4 SE 2 6 1 3 1013.8 1013.1 0.0
30/01:00am 14.7 14.2 7.7 63 3.5 CALM 0 4 0 2 1013.9 1013.2 0.0
30/12:30am 15.3 14.8 7.8 61 3.8 CALM 0 0 0 0 1013.8 1013.1 0.0
30/12:00am 16.6 16.2 8.1 57 4.3 CALM 0 0 0 0 1013.9 1013.2 0.0
 
Date/Time
WST
Temp
°C
App
Temp
°C
Dew
Point
°C
Rel
Hum
%
Delta-T
°C
Wind Press
QNH
hPa
Press
MSL
hPa
Rain since
9am
mm
Dir  Spd
km/h
Gust
km/h
Spd
kts
Gust
kts
29/11:30pm 17.8 16.2 8.1 53 5.0 ENE 6 7 3 4 1013.8 1013.1 0.0
29/11:00pm 18.9 17.3 8.0 49 5.6 NNE 6 13 3 7 1013.6 1012.9 0.0
29/10:30pm 18.6 17.2 7.4 48 5.7 W 4 7 2 4 1013.5 1012.8 0.0
29/10:00pm 19.4 17.8 6.2 42 6.6 NNW 4 7 2 4 1013.5 1012.8 0.0
29/09:30pm 19.8 16.8 3.9 35 7.6 N 9 11 5 6 1013.3 1012.6 0.0
29/09:00pm 20.4 17.9 4.0 34 7.9 S 6 9 3 5 1013.0 1012.3 0.0
29/08:30pm 19.4 18.5 6.2 42 6.6 CALM 0 0 0 0 1012.6 1011.9 0.0
29/08:00pm 21.0 19.9 5.0 35 7.9 CALM 0 2 0 1 1012.4 1011.7 0.0
29/07:30pm 21.9 19.9 4.5 32 8.6 SW 4 4 2 2 1012.1 1011.4 0.0
29/07:00pm 22.8 20.3 3.9 29 9.3 SSW 6 7 3 4 1011.7 1011.1 0.0
29/06:30pm 23.5 21.4 4.0 28 9.6 WSW 4 6 2 3 1011.5 1010.9 0.0
29/06:00pm 24.8 22.1 2.9 24 10.7 W 6 7 3 4 1011.2 1010.6 0.0
29/05:30pm 26.1 24.3 3.4 23 11.3 E 2 6 1 3 1010.9 1010.3 0.0
29/05:00pm 26.8 24.6 3.3 22 11.7 SSE 4 9 2 5 1010.7 1010.1 0.0
29/04:30pm 27.2 24.6 3.0 21 12.0 WNW 6 9 3 5 1010.4 1009.8 0.0
29/04:00pm 27.1 24.7 4.2 23 11.7 SSE 6 9 3 5 1010.2 1009.6 0.0
29/03:30pm 27.4 25.0 4.5 23 11.7 NNW 6 9 3 5 1010.2 1009.6 0.0
29/03:00pm 27.5 25.1 4.5 23 11.8 SE 6 7 3 4 1010.3 1009.7 0.0
29/02:30pm 27.7 25.9 5.3 24 11.6 NE 4 9 2 5 1010.5 1009.9 0.0
29/02:00pm 26.6 24.4 5.5 26 11.0 SE 6 13 3 7 1010.8 1010.2 0.0
29/01:30pm 26.3 24.0 5.8 27 10.7 ESE 7 13 4 7 1011.1 1010.5 0.0
29/01:00pm 26.6 24.9 6.1 27 10.8 ESE 4 15 2 8 1011.3 1010.7 0.0
29/12:30pm 25.6 23.5 5.8 28 10.3 S 6 13 3 7 1011.7 1011.1 0.0
29/12:00pm 25.2 23.2 6.4 30 9.8 SSE 6 13 3 7 1012.1 1011.4 0.0

Other Formats:

Comma delimited format used in spreadsheet applications
http://www.bom.gov.au/fwo/IDW60801/IDW60801.95317.axf

JavaScript Object Notation format (JSON) in row-major order
http://www.bom.gov.au/fwo/IDW60801/IDW60801.95317.json